sensor_id;sensor_type;location;lat;lon;timestamp;pressure;altitude;pressure_sealevel;temperature
11849;BMP180;5983;49.966;8.052;2023-05-18T00:01:08;101444.00;;;10.60
11849;BMP180;5983;49.966;8.052;2023-05-18T00:03:35;101439.00;;;10.50
11849;BMP180;5983;49.966;8.052;2023-05-18T00:06:04;101429.00;;;10.50
11849;BMP180;5983;49.966;8.052;2023-05-18T00:08:31;101428.00;;;10.50
11849;BMP180;5983;49.966;8.052;2023-05-18T00:10:58;101434.00;;;10.50
11849;BMP180;5983;49.966;8.052;2023-05-18T00:13:25;101431.00;;;10.40
11849;BMP180;5983;49.966;8.052;2023-05-18T00:15:52;101434.00;;;10.40
11849;BMP180;5983;49.966;8.052;2023-05-18T00:18:18;101429.00;;;10.30
11849;BMP180;5983;49.966;8.052;2023-05-18T00:20:49;101429.00;;;10.30
11849;BMP180;5983;49.966;8.052;2023-05-18T00:23:17;101432.00;;;10.30
11849;BMP180;5983;49.966;8.052;2023-05-18T00:25:44;101433.00;;;10.40
11849;BMP180;5983;49.966;8.052;2023-05-18T00:28:11;101424.00;;;10.30
11849;BMP180;5983;49.966;8.052;2023-05-18T00:30:37;101421.00;;;10.30
11849;BMP180;5983;49.966;8.052;2023-05-18T00:33:05;101425.00;;;10.20
11849;BMP180;5983;49.966;8.052;2023-05-18T00:35:31;101426.00;;;10.10
11849;BMP180;5983;49.966;8.052;2023-05-18T00:37:58;101416.00;;;10.10
11849;BMP180;5983;49.966;8.052;2023-05-18T00:40:26;101415.00;;;10.00
11849;BMP180;5983;49.966;8.052;2023-05-18T00:42:53;101423.00;;;10.00
11849;BMP180;5983;49.966;8.052;2023-05-18T00:45:20;101431.00;;;9.90
11849;BMP180;5983;49.966;8.052;2023-05-18T00:47:47;101419.00;;;9.90
11849;BMP180;5983;49.966;8.052;2023-05-18T00:50:14;101413.00;;;9.90
11849;BMP180;5983;49.966;8.052;2023-05-18T00:52:42;101424.00;;;9.80
11849;BMP180;5983;49.966;8.052;2023-05-18T00:55:10;101415.00;;;9.70
11849;BMP180;5983;49.966;8.052;2023-05-18T00:57:40;101428.00;;;9.60
11849;BMP180;5983;49.966;8.052;2023-05-18T01:00:11;101418.00;;;9.50
11849;BMP180;5983;49.966;8.052;2023-05-18T01:02:38;101413.00;;;9.30
11849;BMP180;5983;49.966;8.052;2023-05-18T01:05:07;101409.00;;;9.20
11849;BMP180;5983;49.966;8.052;2023-05-18T01:07:36;101410.00;;;9.00
11849;BMP180;5983;49.966;8.052;2023-05-18T01:10:04;101404.00;;;8.90
11849;BMP180;5983;49.966;8.052;2023-05-18T01:12:35;101410.00;;;8.80
11849;BMP180;5983;49.966;8.052;2023-05-18T01:15:07;101413.00;;;8.80
11849;BMP180;5983;49.966;8.052;2023-05-18T01:17:38;101409.00;;;8.70
11849;BMP180;5983;49.966;8.052;2023-05-18T01:20:18;101403.00;;;8.50
11849;BMP180;5983;49.966;8.052;2023-05-18T01:23:17;101409.00;;;8.40
11849;BMP180;5983;49.966;8.052;2023-05-18T01:26:11;101409.00;;;8.30
11849;BMP180;5983;49.966;8.052;2023-05-18T01:28:42;101403.00;;;8.30
11849;BMP180;5983;49.966;8.052;2023-05-18T01:31:11;101408.00;;;8.20
11849;BMP180;5983;49.966;8.052;2023-05-18T01:33:37;101406.00;;;8.10
11849;BMP180;5983;49.966;8.052;2023-05-18T01:36:05;101413.00;;;8.10
11849;BMP180;5983;49.966;8.052;2023-05-18T01:38:31;101399.00;;;8.10
11849;BMP180;5983;49.966;8.052;2023-05-18T01:41:02;101405.00;;;8.10
11849;BMP180;5983;49.966;8.052;2023-05-18T01:43:35;101402.00;;;8.10
11849;BMP180;5983;49.966;8.052;2023-05-18T01:46:05;101407.00;;;8.00
11849;BMP180;5983;49.966;8.052;2023-05-18T01:48:36;101401.00;;;7.90
11849;BMP180;5983;49.966;8.052;2023-05-18T01:51:05;101394.00;;;7.90
11849;BMP180;5983;49.966;8.052;2023-05-18T01:53:38;101398.00;;;7.80
11849;BMP180;5983;49.966;8.052;2023-05-18T01:56:07;101397.00;;;7.80
11849;BMP180;5983;49.966;8.052;2023-05-18T01:58:36;101397.00;;;7.80
11849;BMP180;5983;49.966;8.052;2023-05-18T02:01:03;101398.00;;;7.80
11849;BMP180;5983;49.966;8.052;2023-05-18T02:03:30;101395.00;;;7.70
11849;BMP180;5983;49.966;8.052;2023-05-18T02:05:57;101398.00;;;7.70
11849;BMP180;5983;49.966;8.052;2023-05-18T02:08:24;101398.00;;;7.60
11849;BMP180;5983;49.966;8.052;2023-05-18T02:10:50;101387.00;;;7.60
11849;BMP180;5983;49.966;8.052;2023-05-18T02:13:17;101387.00;;;7.60
11849;BMP180;5983;49.966;8.052;2023-05-18T02:15:45;101387.00;;;7.50
11849;BMP180;5983;49.966;8.052;2023-05-18T02:18:12;101390.00;;;7.50
11849;BMP180;5983;49.966;8.052;2023-05-18T02:20:39;101383.00;;;7.40
11849;BMP180;5983;49.966;8.052;2023-05-18T02:23:06;101386.00;;;7.40
11849;BMP180;5983;49.966;8.052;2023-05-18T02:25:32;101388.00;;;7.40
11849;BMP180;5983;49.966;8.052;2023-05-18T02:27:59;101390.00;;;7.30
11849;BMP180;5983;49.966;8.052;2023-05-18T02:30:26;101387.00;;;7.30
11849;BMP180;5983;49.966;8.052;2023-05-18T02:32:54;101390.00;;;7.30
11849;BMP180;5983;49.966;8.052;2023-05-18T02:35:21;101387.00;;;7.30
11849;BMP180;5983;49.966;8.052;2023-05-18T02:37:48;101383.00;;;7.20
11849;BMP180;5983;49.966;8.052;2023-05-18T02:40:15;101385.00;;;7.20
11849;BMP180;5983;49.966;8.052;2023-05-18T02:42:42;101381.00;;;7.20
11849;BMP180;5983;49.966;8.052;2023-05-18T02:45:09;101389.00;;;7.20
11849;BMP180;5983;49.966;8.052;2023-05-18T02:47:36;101392.00;;;7.20
11849;BMP180;5983;49.966;8.052;2023-05-18T02:50:05;101393.00;;;7.10
11849;BMP180;5983;49.966;8.052;2023-05-18T02:52:32;101383.00;;;7.10
11849;BMP180;5983;49.966;8.052;2023-05-18T02:54:59;101397.00;;;7.00
11849;BMP180;5983;49.966;8.052;2023-05-18T02:57:25;101385.00;;;6.90
11849;BMP180;5983;49.966;8.052;2023-05-18T02:59:52;101389.00;;;6.90
11849;BMP180;5983;49.966;8.052;2023-05-18T03:02:19;101389.00;;;6.90
11849;BMP180;5983;49.966;8.052;2023-05-18T03:04:48;101398.00;;;6.90
11849;BMP180;5983;49.966;8.052;2023-05-18T03:07:23;101393.00;;;6.90
11849;BMP180;5983;49.966;8.052;2023-05-18T03:09:51;101383.00;;;6.90
11849;BMP180;5983;49.966;8.052;2023-05-18T03:12:18;101385.00;;;6.90
11849;BMP180;5983;49.966;8.052;2023-05-18T03:14:45;101391.00;;;6.80
11849;BMP180;5983;49.966;8.052;2023-05-18T03:17:11;101388.00;;;6.80
11849;BMP180;5983;49.966;8.052;2023-05-18T03:19:39;101389.00;;;6.80
11849;BMP180;5983;49.966;8.052;2023-05-18T03:22:06;101382.00;;;6.80
11849;BMP180;5983;49.966;8.052;2023-05-18T03:24:34;101390.00;;;6.70
11849;BMP180;5983;49.966;8.052;2023-05-18T03:27:04;101395.00;;;6.80
11849;BMP180;5983;49.966;8.052;2023-05-18T03:29:31;101387.00;;;6.70
11849;BMP180;5983;49.966;8.052;2023-05-18T03:31:58;101383.00;;;6.70
11849;BMP180;5983;49.966;8.052;2023-05-18T03:34:25;101390.00;;;6.70
11849;BMP180;5983;49.966;8.052;2023-05-18T03:36:52;101387.00;;;6.70
11849;BMP180;5983;49.966;8.052;2023-05-18T03:39:19;101393.00;;;6.60
11849;BMP180;5983;49.966;8.052;2023-05-18T03:41:47;101407.00;;;6.60
11849;BMP180;5983;49.966;8.052;2023-05-18T03:44:13;101397.00;;;6.70
11849;BMP180;5983;49.966;8.052;2023-05-18T03:46:40;101402.00;;;6.70
11849;BMP180;5983;49.966;8.052;2023-05-18T03:49:07;101399.00;;;6.70
11849;BMP180;5983;49.966;8.052;2023-05-18T03:51:33;101389.00;;;6.60
11849;BMP180;5983;49.966;8.052;2023-05-18T03:54:00;101406.00;;;6.60
11849;BMP180;5983;49.966;8.052;2023-05-18T03:56:27;101402.00;;;6.60
11849;BMP180;5983;49.966;8.052;2023-05-18T03:58:57;101392.00;;;6.60
11849;BMP180;5983;49.966;8.052;2023-05-18T04:01:24;101401.00;;;6.60
11849;BMP180;5983;49.966;8.052;2023-05-18T04:03:54;101394.00;;;6.60
11849;BMP180;5983;49.966;8.052;2023-05-18T04:06:22;101396.00;;;6.60
11849;BMP180;5983;49.966;8.052;2023-05-18T04:08:50;101400.00;;;6.60
11849;BMP180;5983;49.966;8.052;2023-05-18T04:11:17;101403.00;;;6.60
11849;BMP180;5983;49.966;8.052;2023-05-18T04:13:45;101407.00;;;6.60
11849;BMP180;5983;49.966;8.052;2023-05-18T04:16:13;101403.00;;;6.60
11849;BMP180;5983;49.966;8.052;2023-05-18T04:18:40;101400.00;;;6.70
11849;BMP180;5983;49.966;8.052;2023-05-18T04:21:08;101402.00;;;6.70
11849;BMP180;5983;49.966;8.052;2023-05-18T04:23:36;101412.00;;;6.70
11849;BMP180;5983;49.966;8.052;2023-05-18T04:26:03;101408.00;;;6.80
11849;BMP180;5983;49.966;8.052;2023-05-18T04:28:31;101413.00;;;6.80
11849;BMP180;5983;49.966;8.052;2023-05-18T04:30:58;101419.00;;;6.90
11849;BMP180;5983;49.966;8.052;2023-05-18T04:33:27;101409.00;;;7.00
11849;BMP180;5983;49.966;8.052;2023-05-18T04:35:54;101413.00;;;7.10
11849;BMP180;5983;49.966;8.052;2023-05-18T04:38:23;101416.00;;;7.20
11849;BMP180;5983;49.966;8.052;2023-05-18T04:40:50;101425.00;;;7.30
11849;BMP180;5983;49.966;8.052;2023-05-18T04:43:18;101419.00;;;7.40
11849;BMP180;5983;49.966;8.052;2023-05-18T04:45:45;101425.00;;;7.50
11849;BMP180;5983;49.966;8.052;2023-05-18T04:48:14;101423.00;;;7.50
11849;BMP180;5983;49.966;8.052;2023-05-18T04:50:45;101422.00;;;7.60
11849;BMP180;5983;49.966;8.052;2023-05-18T04:53:11;101428.00;;;7.70
11849;BMP180;5983;49.966;8.052;2023-05-18T04:55:38;101431.00;;;7.80
11849;BMP180;5983;49.966;8.052;2023-05-18T04:58:07;101424.00;;;7.90
11849;BMP180;5983;49.966;8.052;2023-05-18T05:00:34;101417.00;;;8.00
11849;BMP180;5983;49.966;8.052;2023-05-18T05:03:01;101423.00;;;8.10
11849;BMP180;5983;49.966;8.052;2023-05-18T05:05:28;101425.00;;;8.10
11849;BMP180;5983;49.966;8.052;2023-05-18T05:07:56;101430.00;;;8.20
11849;BMP180;5983;49.966;8.052;2023-05-18T05:10:23;101427.00;;;8.40
11849;BMP180;5983;49.966;8.052;2023-05-18T05:12:50;101443.00;;;8.50
11849;BMP180;5983;49.966;8.052;2023-05-18T05:15:17;101432.00;;;8.60
11849;BMP180;5983;49.966;8.052;2023-05-18T05:17:45;101432.00;;;8.70
11849;BMP180;5983;49.966;8.052;2023-05-18T05:20:11;101436.00;;;8.90
11849;BMP180;5983;49.966;8.052;2023-05-18T05:22:38;101433.00;;;8.90
11849;BMP180;5983;49.966;8.052;2023-05-18T05:25:07;101436.00;;;9.10
11849;BMP180;5983;49.966;8.052;2023-05-18T05:27:34;101436.00;;;9.20
11849;BMP180;5983;49.966;8.052;2023-05-18T05:30:01;101446.00;;;9.30
11849;BMP180;5983;49.966;8.052;2023-05-18T05:32:27;101455.00;;;9.40
11849;BMP180;5983;49.966;8.052;2023-05-18T05:34:54;101444.00;;;9.50
11849;BMP180;5983;49.966;8.052;2023-05-18T05:37:21;101440.00;;;9.70
11849;BMP180;5983;49.966;8.052;2023-05-18T05:39:47;101444.00;;;9.80
11849;BMP180;5983;49.966;8.052;2023-05-18T05:42:15;101454.00;;;9.90
11849;BMP180;5983;49.966;8.052;2023-05-18T05:44:42;101451.00;;;10.00
11849;BMP180;5983;49.966;8.052;2023-05-18T05:47:09;101446.00;;;10.20
11849;BMP180;5983;49.966;8.052;2023-05-18T05:49:35;101443.00;;;10.30
11849;BMP180;5983;49.966;8.052;2023-05-18T05:52:03;101447.00;;;10.40
11849;BMP180;5983;49.966;8.052;2023-05-18T05:54:29;101441.00;;;10.50
11849;BMP180;5983;49.966;8.052;2023-05-18T05:56:56;101453.00;;;10.60
11849;BMP180;5983;49.966;8.052;2023-05-18T05:59:24;101449.00;;;10.70
11849;BMP180;5983;49.966;8.052;2023-05-18T06:01:51;101455.00;;;10.80
11849;BMP180;5983;49.966;8.052;2023-05-18T06:04:17;101466.00;;;11.00
11849;BMP180;5983;49.966;8.052;2023-05-18T06:06:46;101462.00;;;11.10
11849;BMP180;5983;49.966;8.052;2023-05-18T06:09:13;101460.00;;;11.20
11849;BMP180;5983;49.966;8.052;2023-05-18T06:11:40;101463.00;;;11.30
11849;BMP180;5983;49.966;8.052;2023-05-18T06:14:07;101463.00;;;11.40
11849;BMP180;5983;49.966;8.052;2023-05-18T06:16:35;101463.00;;;11.60
11849;BMP180;5983;49.966;8.052;2023-05-18T06:19:02;101460.00;;;11.70
11849;BMP180;5983;49.966;8.052;2023-05-18T06:21:29;101462.00;;;11.80
11849;BMP180;5983;49.966;8.052;2023-05-18T06:23:56;101459.00;;;11.90
11849;BMP180;5983;49.966;8.052;2023-05-18T06:26:22;101466.00;;;11.90
11849;BMP180;5983;49.966;8.052;2023-05-18T06:28:49;101470.00;;;12.00
11849;BMP180;5983;49.966;8.052;2023-05-18T06:31:17;101471.00;;;12.10
11849;BMP180;5983;49.966;8.052;2023-05-18T06:33:45;101468.00;;;12.20
11849;BMP180;5983;49.966;8.052;2023-05-18T06:36:12;101479.00;;;12.30
11849;BMP180;5983;49.966;8.052;2023-05-18T06:38:38;101470.00;;;12.40
11849;BMP180;5983;49.966;8.052;2023-05-18T06:41:05;101474.00;;;12.50
11849;BMP180;5983;49.966;8.052;2023-05-18T06:43:32;101476.00;;;12.60
11849;BMP180;5983;49.966;8.052;2023-05-18T06:45:58;101474.00;;;12.70
11849;BMP180;5983;49.966;8.052;2023-05-18T06:48:27;101480.00;;;12.80
11849;BMP180;5983;49.966;8.052;2023-05-18T06:50:55;101472.00;;;12.90
11849;BMP180;5983;49.966;8.052;2023-05-18T06:53:22;101474.00;;;13.00
11849;BMP180;5983;49.966;8.052;2023-05-18T06:55:49;101481.00;;;13.10
11849;BMP180;5983;49.966;8.052;2023-05-18T06:58:15;101483.00;;;13.10
11849;BMP180;5983;49.966;8.052;2023-05-18T07:00:42;101489.00;;;13.20
11849;BMP180;5983;49.966;8.052;2023-05-18T07:03:09;101494.00;;;13.40
11849;BMP180;5983;49.966;8.052;2023-05-18T07:05:36;101494.00;;;13.40
11849;BMP180;5983;49.966;8.052;2023-05-18T07:08:04;101490.00;;;13.50
11849;BMP180;5983;49.966;8.052;2023-05-18T07:10:31;101493.00;;;13.70
11849;BMP180;5983;49.966;8.052;2023-05-18T07:12:59;101487.00;;;13.80
11849;BMP180;5983;49.966;8.052;2023-05-18T07:15:26;101492.00;;;13.90
11849;BMP180;5983;49.966;8.052;2023-05-18T07:17:53;101496.00;;;14.00
11849;BMP180;5983;49.966;8.052;2023-05-18T07:20:20;101502.00;;;14.10
11849;BMP180;5983;49.966;8.052;2023-05-18T07:22:46;101488.00;;;14.20
11849;BMP180;5983;49.966;8.052;2023-05-18T07:25:15;101488.00;;;14.30
11849;BMP180;5983;49.966;8.052;2023-05-18T07:27:41;101494.00;;;14.30
11849;BMP180;5983;49.966;8.052;2023-05-18T07:30:09;101490.00;;;14.30
11849;BMP180;5983;49.966;8.052;2023-05-18T07:32:35;101490.00;;;14.30
11849;BMP180;5983;49.966;8.052;2023-05-18T07:35:03;101500.00;;;14.40
11849;BMP180;5983;49.966;8.052;2023-05-18T07:37:30;101493.00;;;14.50
11849;BMP180;5983;49.966;8.052;2023-05-18T07:39:56;101494.00;;;14.50
11849;BMP180;5983;49.966;8.052;2023-05-18T07:42:24;101494.00;;;14.50
11849;BMP180;5983;49.966;8.052;2023-05-18T07:44:52;101494.00;;;14.50
11849;BMP180;5983;49.966;8.052;2023-05-18T07:47:19;101492.00;;;14.50
11849;BMP180;5983;49.966;8.052;2023-05-18T07:49:46;101484.00;;;14.70
11849;BMP180;5983;49.966;8.052;2023-05-18T07:52:13;101490.00;;;14.80
11849;BMP180;5983;49.966;8.052;2023-05-18T07:54:39;101495.00;;;15.00
11849;BMP180;5983;49.966;8.052;2023-05-18T07:57:06;101485.00;;;15.10
11849;BMP180;5983;49.966;8.052;2023-05-18T07:59:34;101487.00;;;15.20
11849;BMP180;5983;49.966;8.052;2023-05-18T08:02:01;101487.00;;;15.30
11849;BMP180;5983;49.966;8.052;2023-05-18T08:04:28;101486.00;;;15.40
11849;BMP180;5983;49.966;8.052;2023-05-18T08:06:54;101494.00;;;15.40
11849;BMP180;5983;49.966;8.052;2023-05-18T08:09:25;101484.00;;;15.50
11849;BMP180;5983;49.966;8.052;2023-05-18T08:11:51;101484.00;;;15.60
11849;BMP180;5983;49.966;8.052;2023-05-18T08:14:18;101481.00;;;15.60
11849;BMP180;5983;49.966;8.052;2023-05-18T08:16:47;101484.00;;;15.80
11849;BMP180;5983;49.966;8.052;2023-05-18T08:19:14;101488.00;;;15.90
11849;BMP180;5983;49.966;8.052;2023-05-18T08:21:41;101472.00;;;16.10
11849;BMP180;5983;49.966;8.052;2023-05-18T08:24:08;101486.00;;;16.20
11849;BMP180;5983;49.966;8.052;2023-05-18T08:26:35;101484.00;;;16.30
11849;BMP180;5983;49.966;8.052;2023-05-18T08:29:02;101471.00;;;16.30
11849;BMP180;5983;49.966;8.052;2023-05-18T08:31:34;101485.00;;;16.40
11849;BMP180;5983;49.966;8.052;2023-05-18T08:34:02;101488.00;;;16.60
11849;BMP180;5983;49.966;8.052;2023-05-18T08:36:29;101486.00;;;16.60
11849;BMP180;5983;49.966;8.052;2023-05-18T08:38:57;101471.00;;;16.80
11849;BMP180;5983;49.966;8.052;2023-05-18T08:41:28;101471.00;;;16.90
11849;BMP180;5983;49.966;8.052;2023-05-18T08:44:00;101479.00;;;17.00
11849;BMP180;5983;49.966;8.052;2023-05-18T08:46:31;101473.00;;;17.00
11849;BMP180;5983;49.966;8.052;2023-05-18T08:49:00;101476.00;;;17.10
11849;BMP180;5983;49.966;8.052;2023-05-18T08:51:33;101475.00;;;17.10
11849;BMP180;5983;49.966;8.052;2023-05-18T08:54:00;101476.00;;;17.20
11849;BMP180;5983;49.966;8.052;2023-05-18T08:56:29;101469.00;;;17.20
11849;BMP180;5983;49.966;8.052;2023-05-18T08:58:57;101478.00;;;17.40
11849;BMP180;5983;49.966;8.052;2023-05-18T09:01:24;101458.00;;;17.40
11849;BMP180;5983;49.966;8.052;2023-05-18T09:03:54;101471.00;;;17.40
11849;BMP180;5983;49.966;8.052;2023-05-18T09:06:22;101465.00;;;17.50
11849;BMP180;5983;49.966;8.052;2023-05-18T09:08:52;101468.00;;;17.70
11849;BMP180;5983;49.966;8.052;2023-05-18T09:11:21;101465.00;;;17.80
11849;BMP180;5983;49.966;8.052;2023-05-18T09:13:47;101461.00;;;17.80
11849;BMP180;5983;49.966;8.052;2023-05-18T09:16:15;101465.00;;;18.00
11849;BMP180;5983;49.966;8.052;2023-05-18T09:18:41;101464.00;;;18.00
11849;BMP180;5983;49.966;8.052;2023-05-18T09:21:08;101456.00;;;18.10
11849;BMP180;5983;49.966;8.052;2023-05-18T09:23:37;101451.00;;;18.20
11849;BMP180;5983;49.966;8.052;2023-05-18T09:26:05;101446.00;;;18.30
11849;BMP180;5983;49.966;8.052;2023-05-18T09:28:35;101452.00;;;18.40
11849;BMP180;5983;49.966;8.052;2023-05-18T09:31:03;101452.00;;;18.40
11849;BMP180;5983;49.966;8.052;2023-05-18T09:33:32;101465.00;;;18.60
11849;BMP180;5983;49.966;8.052;2023-05-18T09:35:59;101461.00;;;18.60
11849;BMP180;5983;49.966;8.052;2023-05-18T09:38:27;101463.00;;;18.70
11849;BMP180;5983;49.966;8.052;2023-05-18T09:40:53;101461.00;;;18.80
11849;BMP180;5983;49.966;8.052;2023-05-18T09:43:21;101461.00;;;19.00
11849;BMP180;5983;49.966;8.052;2023-05-18T09:45:48;101454.00;;;19.30
11849;BMP180;5983;49.966;8.052;2023-05-18T09:48:16;101450.00;;;19.50
11849;BMP180;5983;49.966;8.052;2023-05-18T09:50:43;101457.00;;;19.40
11849;BMP180;5983;49.966;8.052;2023-05-18T09:53:12;101457.00;;;19.40
11849;BMP180;5983;49.966;8.052;2023-05-18T09:55:44;101457.00;;;19.40
11849;BMP180;5983;49.966;8.052;2023-05-18T09:58:11;101454.00;;;19.60
11849;BMP180;5983;49.966;8.052;2023-05-18T10:00:42;101447.00;;;19.60
11849;BMP180;5983;49.966;8.052;2023-05-18T10:03:19;101448.00;;;19.70
11849;BMP180;5983;49.966;8.052;2023-05-18T10:05:46;101444.00;;;19.80
11849;BMP180;5983;49.966;8.052;2023-05-18T10:08:13;101435.00;;;19.90
11849;BMP180;5983;49.966;8.052;2023-05-18T10:10:43;101436.00;;;19.90
11849;BMP180;5983;49.966;8.052;2023-05-18T10:13:12;101441.00;;;19.90
11849;BMP180;5983;49.966;8.052;2023-05-18T10:15:54;101436.00;;;20.00
11849;BMP180;5983;49.966;8.052;2023-05-18T10:18:25;101435.00;;;20.00
11849;BMP180;5983;49.966;8.052;2023-05-18T10:20:53;101442.00;;;20.20
11849;BMP180;5983;49.966;8.052;2023-05-18T10:23:21;101438.00;;;20.30
11849;BMP180;5983;49.966;8.052;2023-05-18T10:25:49;101438.00;;;20.20
11849;BMP180;5983;49.966;8.052;2023-05-18T10:28:18;101434.00;;;20.20
11849;BMP180;5983;49.966;8.052;2023-05-18T10:30:55;101433.00;;;20.00
11849;BMP180;5983;49.966;8.052;2023-05-18T10:33:24;101426.00;;;20.00
11849;BMP180;5983;49.966;8.052;2023-05-18T10:36:09;101439.00;;;20.20
11849;BMP180;5983;49.966;8.052;2023-05-18T10:38:37;101434.00;;;20.50
11849;BMP180;5983;49.966;8.052;2023-05-18T10:41:06;101433.00;;;20.60
11849;BMP180;5983;49.966;8.052;2023-05-18T10:43:33;101432.00;;;20.40
11849;BMP180;5983;49.966;8.052;2023-05-18T10:46:04;101423.00;;;20.50
11849;BMP180;5983;49.966;8.052;2023-05-18T10:48:36;101418.00;;;20.70
11849;BMP180;5983;49.966;8.052;2023-05-18T10:51:05;101411.00;;;20.60
11849;BMP180;5983;49.966;8.052;2023-05-18T10:53:32;101427.00;;;20.70
11849;BMP180;5983;49.966;8.052;2023-05-18T10:56:00;101425.00;;;20.70
11849;BMP180;5983;49.966;8.052;2023-05-18T10:58:28;101419.00;;;20.80
11849;BMP180;5983;49.966;8.052;2023-05-18T11:00:57;101427.00;;;20.60
11849;BMP180;5983;49.966;8.052;2023-05-18T11:03:26;101422.00;;;20.50
11849;BMP180;5983;49.966;8.052;2023-05-18T11:06:03;101422.00;;;20.40
11849;BMP180;5983;49.966;8.052;2023-05-18T11:08:31;101413.00;;;20.50
11849;BMP180;5983;49.966;8.052;2023-05-18T11:10:59;101415.00;;;20.70
11849;BMP180;5983;49.966;8.052;2023-05-18T11:13:28;101408.00;;;21.00
11849;BMP180;5983;49.966;8.052;2023-05-18T11:16:03;101408.00;;;21.10
11849;BMP180;5983;49.966;8.052;2023-05-18T11:18:50;101401.00;;;21.10
11849;BMP180;5983;49.966;8.052;2023-05-18T11:21:19;101397.00;;;21.30
11849;BMP180;5983;49.966;8.052;2023-05-18T11:24:16;101396.00;;;21.50
11849;BMP180;5983;49.966;8.052;2023-05-18T11:26:46;101389.00;;;21.50
11849;BMP180;5983;49.966;8.052;2023-05-18T11:29:18;101394.00;;;21.50
11849;BMP180;5983;49.966;8.052;2023-05-18T11:31:46;101392.00;;;21.20
11849;BMP180;5983;49.966;8.052;2023-05-18T11:34:35;101403.00;;;21.20
11849;BMP180;5983;49.966;8.052;2023-05-18T11:37:02;101390.00;;;21.20
11849;BMP180;5983;49.966;8.052;2023-05-18T11:39:31;101390.00;;;21.10
11849;BMP180;5983;49.966;8.052;2023-05-18T11:41:58;101380.00;;;21.10
11849;BMP180;5983;49.966;8.052;2023-05-18T11:44:27;101385.00;;;21.20
11849;BMP180;5983;49.966;8.052;2023-05-18T11:46:58;101398.00;;;21.30
11849;BMP180;5983;49.966;8.052;2023-05-18T11:49:26;101388.00;;;21.40
11849;BMP180;5983;49.966;8.052;2023-05-18T11:52:05;101385.00;;;21.40
11849;BMP180;5983;49.966;8.052;2023-05-18T11:54:33;101400.00;;;21.50
11849;BMP180;5983;49.966;8.052;2023-05-18T11:57:00;101384.00;;;21.40
11849;BMP180;5983;49.966;8.052;2023-05-18T11:59:31;101381.00;;;21.30
11849;BMP180;5983;49.966;8.052;2023-05-18T12:02:01;101377.00;;;21.30
11849;BMP180;5983;49.966;8.052;2023-05-18T12:04:28;101385.00;;;21.30
11849;BMP180;5983;49.966;8.052;2023-05-18T12:06:57;101379.00;;;21.00
11849;BMP180;5983;49.966;8.052;2023-05-18T12:09:24;101370.00;;;20.90
11849;BMP180;5983;49.966;8.052;2023-05-18T12:11:51;101370.00;;;20.80
11849;BMP180;5983;49.966;8.052;2023-05-18T12:14:18;101372.00;;;20.70
11849;BMP180;5983;49.966;8.052;2023-05-18T12:16:47;101373.00;;;20.70
11849;BMP180;5983;49.966;8.052;2023-05-18T12:19:14;101374.00;;;20.80
11849;BMP180;5983;49.966;8.052;2023-05-18T12:21:41;101363.00;;;20.90
11849;BMP180;5983;49.966;8.052;2023-05-18T12:24:09;101364.00;;;21.00
11849;BMP180;5983;49.966;8.052;2023-05-18T12:26:36;101359.00;;;21.10
11849;BMP180;5983;49.966;8.052;2023-05-18T12:29:05;101352.00;;;21.10
11849;BMP180;5983;49.966;8.052;2023-05-18T12:31:33;101360.00;;;21.20
11849;BMP180;5983;49.966;8.052;2023-05-18T12:34:01;101367.00;;;21.10
11849;BMP180;5983;49.966;8.052;2023-05-18T12:36:29;101350.00;;;21.00
11849;BMP180;5983;49.966;8.052;2023-05-18T12:38:55;101358.00;;;20.90
11849;BMP180;5983;49.966;8.052;2023-05-18T12:41:24;101347.00;;;20.80
11849;BMP180;5983;49.966;8.052;2023-05-18T12:43:52;101347.00;;;20.80
11849;BMP180;5983;49.966;8.052;2023-05-18T12:46:20;101341.00;;;20.60
11849;BMP180;5983;49.966;8.052;2023-05-18T12:48:55;101337.00;;;20.50
11849;BMP180;5983;49.966;8.052;2023-05-18T12:51:21;101347.00;;;20.60
11849;BMP180;5983;49.966;8.052;2023-05-18T12:53:49;101344.00;;;20.60
11849;BMP180;5983;49.966;8.052;2023-05-18T12:56:15;101346.00;;;20.50
11849;BMP180;5983;49.966;8.052;2023-05-18T12:58:55;101341.00;;;20.50
11849;BMP180;5983;49.966;8.052;2023-05-18T13:01:22;101336.00;;;20.60
11849;BMP180;5983;49.966;8.052;2023-05-18T13:03:54;101341.00;;;20.70
11849;BMP180;5983;49.966;8.052;2023-05-18T13:06:28;101336.00;;;20.80
11849;BMP180;5983;49.966;8.052;2023-05-18T13:08:55;101325.00;;;20.90
11849;BMP180;5983;49.966;8.052;2023-05-18T13:11:24;101324.00;;;20.80
11849;BMP180;5983;49.966;8.052;2023-05-18T13:14:07;101323.00;;;20.90
11849;BMP180;5983;49.966;8.052;2023-05-18T13:16:37;101328.00;;;20.80
11849;BMP180;5983;49.966;8.052;2023-05-18T13:19:07;101315.00;;;20.90
11849;BMP180;5983;49.966;8.052;2023-05-18T13:21:34;101322.00;;;21.00
11849;BMP180;5983;49.966;8.052;2023-05-18T13:24:01;101312.00;;;20.90
11849;BMP180;5983;49.966;8.052;2023-05-18T13:26:28;101315.00;;;20.80
11849;BMP180;5983;49.966;8.052;2023-05-18T13:28:56;101316.00;;;20.80
11849;BMP180;5983;49.966;8.052;2023-05-18T13:31:26;101315.00;;;20.50
11849;BMP180;5983;49.966;8.052;2023-05-18T13:33:53;101306.00;;;20.60
11849;BMP180;5983;49.966;8.052;2023-05-18T13:36:20;101304.00;;;20.80
11849;BMP180;5983;49.966;8.052;2023-05-18T13:38:47;101297.00;;;20.80
11849;BMP180;5983;49.966;8.052;2023-05-18T13:41:14;101302.00;;;20.70
11849;BMP180;5983;49.966;8.052;2023-05-18T13:43:41;101311.00;;;20.70
11849;BMP180;5983;49.966;8.052;2023-05-18T13:46:07;101306.00;;;20.60
11849;BMP180;5983;49.966;8.052;2023-05-18T13:48:35;101303.00;;;20.50
11849;BMP180;5983;49.966;8.052;2023-05-18T13:51:02;101299.00;;;20.40
11849;BMP180;5983;49.966;8.052;2023-05-18T13:53:29;101294.00;;;20.40
11849;BMP180;5983;49.966;8.052;2023-05-18T13:55:56;101300.00;;;20.50
11849;BMP180;5983;49.966;8.052;2023-05-18T13:58:23;101289.00;;;20.60
11849;BMP180;5983;49.966;8.052;2023-05-18T14:00:50;101293.00;;;20.60
11849;BMP180;5983;49.966;8.052;2023-05-18T14:03:18;101283.00;;;20.50
11849;BMP180;5983;49.966;8.052;2023-05-18T14:05:46;101278.00;;;20.50
11849;BMP180;5983;49.966;8.052;2023-05-18T14:08:13;101279.00;;;20.50
11849;BMP180;5983;49.966;8.052;2023-05-18T14:10:40;101271.00;;;20.50
11849;BMP180;5983;49.966;8.052;2023-05-18T14:13:06;101283.00;;;20.60
11849;BMP180;5983;49.966;8.052;2023-05-18T14:15:33;101270.00;;;20.50
11849;BMP180;5983;49.966;8.052;2023-05-18T14:18:00;101276.00;;;20.50
11849;BMP180;5983;49.966;8.052;2023-05-18T14:20:27;101284.00;;;20.40